Time;durP1;ratioP1;P1;durP2;ratioP2;P2;SDS_P1;SDS_P2;PMS_P1;PMS_P2;Temp;Humidity;BMP_temperature;BMP_pressure;BME280_temperature;BME280_humidity;BME280_pressure;Samples;Min_cycle;Max_cycle;Signal;HPM_P1;HPM_P2
2022/09/02 00:01:29;;;;;;;3.03;1.73;;;14.90;98.20;;;;;;4989520;28;20636;-83
2022/09/02 00:04:04;;;;;;;1.67;1.53;;;15.00;98.40;;;;;;4990184;28;20637;-82
2022/09/02 00:06:31;;;;;;;2.40;2.30;;;15.00;98.40;;;;;;4988211;28;20620;-82
2022/09/02 00:08:58;;;;;;;2.30;2.10;;;15.00;98.00;;;;;;4989406;28;20633;-82
2022/09/02 00:11:29;;;;;;;1.93;1.77;;;15.10;96.80;;;;;;4988865;28;20741;-82
2022/09/02 00:13:56;;;;;;;2.40;2.13;;;15.10;96.50;;;;;;4989526;28;20673;-83
2022/09/02 00:16:24;;;;;;;2.13;1.93;;;15.20;96.20;;;;;;4988511;28;20636;-83
2022/09/02 00:18:53;;;;;;;2.53;2.33;;;15.20;97.00;;;;;;4989071;28;20672;-82
2022/09/02 00:21:21;;;;;;;2.10;2.00;;;15.10;96.90;;;;;;4988942;28;20712;-82
2022/09/02 00:23:48;;;;;;;3.30;2.30;;;15.00;97.00;;;;;;4989243;28;20740;-82
2022/09/02 00:26:16;;;;;;;2.97;2.70;;;15.00;96.80;;;;;;4988738;28;20699;-83
2022/09/02 00:28:43;;;;;;;2.00;1.80;;;15.00;97.10;;;;;;4988993;28;20732;-82
2022/09/02 00:31:10;;;;;;;3.20;2.00;;;14.90;96.50;;;;;;4988993;28;20704;-82
2022/09/02 00:33:38;;;;;;;2.70;1.87;;;14.90;97.10;;;;;;4988757;28;20664;-82
2022/09/02 00:36:07;;;;;;;2.40;2.30;;;14.90;96.90;;;;;;4976324;28;20625;-82
2022/09/02 00:38:35;;;;;;;2.13;2.00;;;14.80;96.90;;;;;;4987926;28;20621;-82
2022/09/02 00:41:06;;;;;;;1.77;1.63;;;14.80;97.40;;;;;;4988987;28;20637;-82
2022/09/02 00:43:43;;;;;;;2.53;2.33;;;14.80;97.20;;;;;;4988836;28;20661;-82
2022/09/02 00:46:12;;;;;;;1.97;1.87;;;14.80;97.40;;;;;;4988411;28;21037;-82
2022/09/02 00:48:43;;;;;;;3.03;2.20;;;14.60;97.40;;;;;;4987818;28;21230;-82
2022/09/02 00:51:12;;;;;;;2.10;2.00;;;14.60;97.60;;;;;;4986822;28;20647;-83
2022/09/02 00:53:42;;;;;;;2.57;2.37;;;14.50;97.50;;;;;;4986675;28;20807;-82
2022/09/02 00:56:14;;;;;;;1.70;1.60;;;14.60;97.20;;;;;;4987157;28;20756;-83
2022/09/02 00:58:43;;;;;;;2.03;1.90;;;14.50;97.50;;;;;;4984243;28;20644;-83
2022/09/02 01:01:11;;;;;;;1.90;1.80;;;14.50;97.50;;;;;;4988582;28;20733;-82
2022/09/02 01:03:40;;;;;;;2.07;1.80;;;14.50;97.70;;;;;;4987501;28;20700;-82
2022/09/02 01:06:08;;;;;;;2.00;1.90;;;14.50;97.80;;;;;;4988670;28;20731;-82
2022/09/02 01:08:38;;;;;;;2.13;1.87;;;14.40;97.70;;;;;;4987081;28;20725;-82
2022/09/02 01:11:06;;;;;;;1.80;1.70;;;14.30;97.50;;;;;;4988225;28;20625;-82
2022/09/02 01:13:40;;;;;;;2.00;1.80;;;14.30;98.00;;;;;;4987188;28;20649;-82
2022/09/02 01:16:13;;;;;;;2.23;2.07;;;14.20;98.40;;;;;;4969038;28;20618;-82
2022/09/02 01:18:43;;;;;;;2.37;2.17;;;14.20;97.90;;;;;;4985287;28;20616;-82
2022/09/02 01:21:11;;;;;;;1.70;1.60;;;14.10;98.10;;;;;;4983887;28;21221;-82
2022/09/02 01:23:41;;;;;;;1.47;1.37;;;14.10;98.60;;;;;;4987728;28;20735;-82
2022/09/02 01:26:09;;;;;;;2.17;1.80;;;14.10;98.70;;;;;;4988040;28;20625;-82
2022/09/02 01:28:37;;;;;;;2.67;1.80;;;14.00;98.80;;;;;;4986631;28;20627;-82
2022/09/02 01:31:05;;;;;;;1.63;1.53;;;14.00;98.80;;;;;;4987936;28;21570;-82
2022/09/02 01:33:32;;;;;;;1.83;1.73;;;14.00;98.50;;;;;;4987894;28;20988;-82
2022/09/02 01:36:03;;;;;;;1.87;1.77;;;14.00;98.70;;;;;;4988013;28;21517;-81
2022/09/02 01:38:31;;;;;;;1.80;1.33;;;13.90;98.70;;;;;;4987606;28;20629;-82
2022/09/02 01:41:01;;;;;;;1.70;1.60;;;13.90;98.60;;;;;;4986933;28;20636;-83
2022/09/02 01:43:29;;;;;;;1.73;1.63;;;13.90;98.30;;;;;;4987159;28;20625;-82
2022/09/02 01:45:59;;;;;;;2.00;1.90;;;13.90;98.20;;;;;;4988531;28;20620;-83
2022/09/02 01:48:27;;;;;;;2.27;2.07;;;14.00;98.00;;;;;;4986733;28;20621;-82
2022/09/02 01:50:58;;;;;;;1.70;1.37;;;14.00;97.80;;;;;;4987039;28;20637;-81
2022/09/02 01:53:27;;;;;;;1.80;1.70;;;14.10;97.70;;;;;;4984853;28;20671;-81
2022/09/02 01:55:55;;;;;;;1.93;1.83;;;14.10;97.90;;;;;;4986692;28;21043;-81
2022/09/02 01:58:24;;;;;;;1.73;1.63;;;14.10;98.20;;;;;;4986905;28;20621;-81
2022/09/02 02:00:51;;;;;;;1.67;1.57;;;14.00;98.00;;;;;;4987882;28;21520;-82
2022/09/02 02:03:19;;;;;;;2.50;1.83;;;13.90;98.00;;;;;;4987346;28;20633;-82
2022/09/02 02:05:46;;;;;;;2.00;1.80;;;13.90;98.80;;;;;;4986380;28;20736;-81
2022/09/02 02:08:12;;;;;;;2.40;2.20;;;13.90;97.70;;;;;;4969680;28;21160;-82
2022/09/02 02:10:42;;;;;;;2.60;2.17;;;14.00;97.90;;;;;;4988172;28;20727;-81
2022/09/02 02:13:09;;;;;;;2.37;1.93;;;14.20;98.60;;;;;;4987300;28;20660;-82
2022/09/02 02:15:40;;;;;;;2.90;2.70;;;14.10;97.20;;;;;;4976852;28;20637;-81
2022/09/02 02:18:07;;;;;;;2.90;2.23;;;14.20;97.20;;;;;;4980888;28;20630;-81
2022/09/02 02:20:35;;;;;;;2.53;2.13;;;14.10;97.70;;;;;;4984445;28;20703;-82
2022/09/02 02:23:04;;;;;;;1.90;1.53;;;14.20;97.20;;;;;;4988540;28;20628;-81
2022/09/02 02:25:32;;;;;;;3.10;2.80;;;14.30;96.70;;;;;;4991219;28;21286;-82
2022/09/02 02:27:59;;;;;;;2.43;2.20;;;14.20;97.40;;;;;;4990979;28;20632;-81
2022/09/02 02:30:27;;;;;;;1.90;1.80;;;14.10;97.10;;;;;;4991124;28;21071;-82
2022/09/02 02:32:56;;;;;;;1.80;1.70;;;13.80;97.90;;;;;;4990874;28;20631;-83
2022/09/02 02:35:24;;;;;;;1.50;1.40;;;13.70;99.60;;;;;;4987652;28;20640;-81
2022/09/02 02:37:52;;;;;;;1.40;1.30;;;13.70;98.30;;;;;;4990260;28;20624;-81
2022/09/02 02:40:22;;;;;;;1.53;1.43;;;13.70;98.50;;;;;;4991151;28;20637;-81
2022/09/02 02:42:52;;;;;;;2.00;1.90;;;13.60;98.80;;;;;;4991580;28;20637;-81
2022/09/02 02:45:19;;;;;;;1.90;1.80;;;13.50;99.20;;;;;;4990965;28;20629;-82
2022/09/02 02:47:47;;;;;;;1.57;1.47;;;13.50;99.00;;;;;;4990241;28;20637;-81
2022/09/02 02:50:18;;;;;;;2.77;2.50;;;13.20;99.50;;;;;;4991049;28;20656;-81
2022/09/02 02:52:47;;;;;;;1.20;1.10;;;13.40;99.50;;;;;;4989605;28;20633;-81
2022/09/02 02:55:15;;;;;;;1.50;1.40;;;13.40;99.90;;;;;;4988782;28;20656;-81
2022/09/02 02:57:45;;;;;;;1.63;1.53;;;13.30;99.90;;;;;;4989760;28;20648;-81
2022/09/02 03:00:15;;;;;;;2.00;1.77;;;13.40;99.90;;;;;;4981305;28;21064;-82
2022/09/02 03:02:43;;;;;;;2.67;2.00;;;13.20;99.90;;;;;;4990689;28;20664;-81
2022/09/02 03:05:12;;;;;;;1.80;1.70;;;13.20;99.90;;;;;;4990497;28;20696;-81
2022/09/02 03:07:40;;;;;;;2.00;1.87;;;13.20;99.90;;;;;;4989648;28;20700;-81
2022/09/02 03:10:09;;;;;;;2.90;1.77;;;13.10;99.90;;;;;;4989765;28;20719;-82
2022/09/02 03:12:38;;;;;;;2.30;2.10;;;13.10;99.90;;;;;;4990397;28;20625;-82
2022/09/02 03:15:06;;;;;;;2.40;2.13;;;13.10;99.90;;;;;;4980005;28;20765;-81
2022/09/02 03:17:33;;;;;;;1.90;1.80;;;13.00;99.90;;;;;;4990089;28;20708;-81
2022/09/02 03:20:00;;;;;;;2.07;1.97;;;13.00;99.90;;;;;;4988217;28;20637;-82
2022/09/02 03:22:29;;;;;;;1.90;1.80;;;13.00;99.90;;;;;;4989955;28;20723;-82
2022/09/02 03:24:57;;;;;;;1.70;1.60;;;13.00;99.90;;;;;;4990348;28;20720;-81
2022/09/02 03:27:24;;;;;;;1.67;1.57;;;12.80;99.90;;;;;;4976132;28;20720;-81
2022/09/02 03:29:51;;;;;;;1.97;1.80;;;12.90;99.90;;;;;;4990409;28;20631;-81
2022/09/02 03:32:18;;;;;;;2.87;1.90;;;13.00;99.90;;;;;;4990353;28;20699;-81
2022/09/02 03:34:45;;;;;;;2.17;2.00;;;13.00;99.90;;;;;;4985407;28;21210;-81
2022/09/02 03:37:12;;;;;;;2.00;1.90;;;12.90;99.90;;;;;;4989263;28;20691;-81
2022/09/02 03:39:39;;;;;;;1.90;1.80;;;12.80;99.90;;;;;;4990241;28;20656;-81
2022/09/02 03:42:08;;;;;;;1.93;1.53;;;12.80;99.90;;;;;;4989691;28;20617;-81
2022/09/02 03:44:35;;;;;;;1.70;1.60;;;12.80;99.90;;;;;;4990728;28;20609;-81
2022/09/02 03:47:02;;;;;;;2.77;1.53;;;12.70;99.90;;;;;;4989893;28;20752;-82
2022/09/02 03:49:29;;;;;;;1.60;1.50;;;12.70;99.90;;;;;;4990221;28;20661;-82
2022/09/02 03:51:56;;;;;;;2.10;2.00;;;12.70;99.90;;;;;;4989887;28;20629;-81
2022/09/02 03:54:23;;;;;;;2.00;1.80;;;12.70;99.90;;;;;;4989798;28;20656;-81
2022/09/02 03:56:50;;;;;;;1.53;1.43;;;12.70;99.90;;;;;;4989369;28;20632;-82
2022/09/02 03:59:19;;;;;;;1.87;1.70;;;12.70;99.90;;;;;;4989959;28;20677;-82
2022/09/02 04:01:46;;;;;;;2.53;2.27;;;12.80;99.90;;;;;;4986393;28;20618;-81
2022/09/02 04:04:13;;;;;;;1.90;1.80;;;12.90;99.90;;;;;;4985819;28;20682;-82
2022/09/02 04:06:40;;;;;;;3.33;2.90;;;13.10;99.90;;;;;;4998194;28;20605;-81
2022/09/02 04:09:07;;;;;;;2.20;2.00;;;13.00;99.90;;;;;;4990975;28;20673;-81
2022/09/02 04:11:34;;;;;;;1.73;1.63;;;13.20;99.90;;;;;;4990236;28;20649;-81
2022/09/02 04:14:01;;;;;;;1.57;1.47;;;13.50;99.90;;;;;;4986402;28;20712;-81
2022/09/02 04:23:13;;;;;;;1.73;1.60;;;13.30;99.90;;;;;;4988913;28;21317;-81
2022/09/02 04:25:42;;;;;;;1.60;1.50;;;13.00;99.90;;;;;;4988596;28;20617;-81
2022/09/02 04:28:12;;;;;;;2.20;2.10;;;13.10;99.90;;;;;;4985124;28;20621;-81
2022/09/02 04:30:39;;;;;;;2.33;2.13;;;13.80;99.50;;;;;;4983116;28;20699;-81
2022/09/02 04:33:09;;;;;;;2.07;1.97;;;13.20;99.90;;;;;;4983655;28;21036;-81
2022/09/02 04:35:40;;;;;;;1.90;1.80;;;13.40;99.20;;;;;;4983315;28;20700;-81
2022/09/02 04:38:07;;;;;;;1.53;1.43;;;13.40;98.50;;;;;;4981839;28;20647;-81
2022/09/02 04:40:35;;;;;;;2.50;2.30;;;13.70;99.90;;;;;;4983290;28;20669;-81
2022/09/02 04:43:03;;;;;;;3.67;2.20;;;13.40;99.50;;;;;;4977274;28;20633;-81
2022/09/02 04:45:30;;;;;;;2.73;2.53;;;13.40;99.30;;;;;;4978973;28;20691;-81
2022/09/02 04:47:56;;;;;;;3.23;3.07;;;13.30;99.90;;;;;;4972384;28;20761;-81
2022/09/02 04:50:23;;;;;;;2.53;2.10;;;13.40;98.70;;;;;;4982350;28;20770;-81
2022/09/02 04:52:50;;;;;;;1.90;1.80;;;13.50;97.90;;;;;;4974167;28;20669;-80
2022/09/02 04:55:17;;;;;;;2.83;2.00;;;13.50;98.30;;;;;;4971811;28;21431;-81
2022/09/02 04:57:45;;;;;;;2.33;2.13;;;13.40;98.90;;;;;;4971211;28;21795;-81
2022/09/02 05:00:13;;;;;;;2.47;2.27;;;13.40;99.00;;;;;;4975114;28;20625;-81
2022/09/02 05:02:40;;;;;;;1.93;1.80;;;13.70;99.10;;;;;;4973366;28;20669;-81
2022/09/02 05:05:08;;;;;;;2.57;1.87;;;13.50;98.30;;;;;;4974801;28;20694;-82
2022/09/02 05:07:36;;;;;;;3.30;3.10;;;13.60;98.00;;;;;;4976009;28;20641;-82
2022/09/02 05:10:03;;;;;;;2.60;2.40;;;13.60;98.10;;;;;;4981635;28;21325;-83
2022/09/02 05:12:32;;;;;;;3.97;3.67;;;13.50;98.00;;;;;;4978499;28;20755;-83
2022/09/02 05:15:00;;;;;;;1.67;1.57;;;13.50;99.70;;;;;;4983113;28;20673;-83
2022/09/02 05:17:30;;;;;;;2.10;2.00;;;13.50;98.80;;;;;;4976342;28;20633;-83
2022/09/02 05:19:58;;;;;;;1.83;1.70;;;13.50;98.60;;;;;;4981425;28;20636;-83
2022/09/02 05:22:28;;;;;;;2.13;1.97;;;13.50;98.30;;;;;;4971648;28;20672;-82
2022/09/02 05:24:55;;;;;;;2.70;2.00;;;13.50;98.20;;;;;;4980108;28;21257;-81
2022/09/02 05:27:22;;;;;;;1.93;1.77;;;13.60;99.90;;;;;;4980762;28;20669;-82
2022/09/02 05:29:49;;;;;;;1.63;1.53;;;13.60;98.50;;;;;;4982936;28;20637;-82
2022/09/02 05:32:17;;;;;;;2.60;2.10;;;13.70;98.20;;;;;;4982467;28;20636;-83
2022/09/02 05:34:44;;;;;;;1.80;1.70;;;13.80;98.10;;;;;;4978532;28;21355;-83
2022/09/02 05:37:11;;;;;;;4.27;1.60;;;13.80;97.70;;;;;;4969788;28;21202;-82
2022/09/02 05:39:38;;;;;;;1.83;1.60;;;14.00;97.30;;;;;;4975467;28;21286;-83
2022/09/02 05:42:05;;;;;;;3.07;1.90;;;14.10;97.10;;;;;;4973090;28;20755;-82
2022/09/02 05:44:32;;;;;;;2.37;2.17;;;14.10;96.90;;;;;;4974417;28;20694;-82
2022/09/02 05:46:59;;;;;;;1.90;1.80;;;14.20;98.80;;;;;;4971373;28;20638;-82
2022/09/02 05:49:27;;;;;;;1.97;1.77;;;14.20;97.00;;;;;;4982159;28;20701;-82
2022/09/02 05:51:55;;;;;;;3.00;1.90;;;14.20;97.20;;;;;;4977598;28;20740;-82
2022/09/02 05:54:25;;;;;;;3.10;2.50;;;14.30;96.90;;;;;;4971339;28;20764;-82
2022/09/02 05:56:54;;;;;;;2.00;1.80;;;14.50;96.70;;;;;;4972025;28;20745;-81
2022/09/02 05:59:22;;;;;;;2.40;2.20;;;14.50;96.80;;;;;;4973256;28;21181;-83
2022/09/02 06:01:49;;;;;;;2.40;2.20;;;14.70;96.00;;;;;;4974862;28;20630;-82
2022/09/02 06:04:17;;;;;;;2.07;1.97;;;14.90;96.50;;;;;;4973985;28;21053;-82
2022/09/02 06:06:45;;;;;;;3.03;1.97;;;14.70;95.90;;;;;;4980694;28;20669;-82
2022/09/02 06:09:17;;;;;;;1.90;1.80;;;14.80;96.00;;;;;;4984307;28;21205;-82
2022/09/02 06:11:44;;;;;;;2.40;2.20;;;15.10;96.00;;;;;;4984723;28;20728;-82
2022/09/02 06:14:12;;;;;;;1.97;1.83;;;15.10;95.60;;;;;;4984265;28;20740;-83
2022/09/02 06:16:41;;;;;;;2.37;2.17;;;15.30;94.60;;;;;;4982221;28;20633;-83
2022/09/02 06:19:08;;;;;;;2.13;1.93;;;15.00;94.90;;;;;;4980006;28;20643;-82
2022/09/02 06:21:36;;;;;;;1.33;1.33;;;15.50;94.60;;;;;;4986850;28;20633;-82
2022/09/02 06:24:07;;;;;;;1.90;1.80;;;15.80;94.80;;;;;;4985459;28;21478;-82
2022/09/02 06:26:35;;;;;;;1.87;1.77;;;15.90;93.90;;;;;;4981429;28;20668;-82
2022/09/02 06:29:02;;;;;;;1.67;1.57;;;15.90;93.60;;;;;;4985516;28;20676;-83
2022/09/02 06:31:29;;;;;;;1.77;1.67;;;16.10;93.60;;;;;;4984124;28;21182;-81
2022/09/02 06:33:57;;;;;;;4.03;1.90;;;16.00;93.40;;;;;;4980731;28;20634;-83
2022/09/02 06:36:26;;;;;;;2.67;2.43;;;16.30;93.40;;;;;;4979119;28;20696;-84
2022/09/02 06:38:55;;;;;;;1.63;1.53;;;16.20;92.90;;;;;;4972184;28;20715;-84
2022/09/02 06:41:27;;;;;;;1.90;1.80;;;16.40;92.90;;;;;;4980855;28;21196;-83
2022/09/02 06:43:56;;;;;;;2.10;1.90;;;16.40;93.00;;;;;;4982448;28;20679;-83
2022/09/02 06:46:25;;;;;;;3.43;2.30;;;16.30;92.60;;;;;;4980066;28;20634;-83
2022/09/02 06:48:52;;;;;;;2.80;2.03;;;16.50;92.90;;;;;;4970393;28;20645;-83
2022/09/02 06:51:20;;;;;;;1.70;1.60;;;16.70;92.80;;;;;;4979455;28;20657;-84
2022/09/02 06:53:47;;;;;;;2.50;2.30;;;16.70;92.70;;;;;;4980929;28;21262;-83
2022/09/02 06:56:14;;;;;;;2.70;1.97;;;16.70;92.60;;;;;;4970860;28;20777;-83
2022/09/02 06:58:42;;;;;;;1.67;1.57;;;16.80;92.60;;;;;;4973300;28;21456;-84
2022/09/02 07:01:10;;;;;;;2.23;2.13;;;16.80;92.50;;;;;;4981175;28;20640;-84
2022/09/02 07:06:21;;;;;;;4.80;2.30;;;17.10;92.30;;;;;;4975036;28;20617;-83
2022/09/02 07:08:48;;;;;;;2.47;2.07;;;17.20;92.10;;;;;;4979550;28;21177;-84
2022/09/02 07:11:17;;;;;;;1.97;1.87;;;17.20;92.00;;;;;;4984480;28;20640;-84
2022/09/02 07:13:46;;;;;;;1.80;1.70;;;17.30;92.10;;;;;;4983136;28;20680;-84
2022/09/02 07:16:14;;;;;;;2.50;2.30;;;17.30;91.90;;;;;;4979331;28;20669;-83
2022/09/02 07:18:41;;;;;;;1.93;1.80;;;17.40;92.30;;;;;;4980243;28;20701;-84
2022/09/02 07:21:09;;;;;;;2.17;2.07;;;17.90;91.60;;;;;;4985328;28;20712;-84
2022/09/02 07:23:36;;;;;;;1.83;1.73;;;17.90;92.30;;;;;;4984445;28;21565;-85
2022/09/02 07:26:03;;;;;;;2.30;2.10;;;17.70;92.30;;;;;;4985129;28;20703;-83
2022/09/02 07:28:32;;;;;;;2.13;2.03;;;17.60;91.30;;;;;;4984493;28;20703;-84
2022/09/02 07:31:00;;;;;;;2.30;2.10;;;17.80;90.90;;;;;;4984897;28;20694;-84
2022/09/02 07:33:50;;;;;;;2.00;1.90;;;17.90;91.50;;;;;;4984967;28;20685;-83
2022/09/02 07:36:20;;;;;;;3.13;2.93;;;17.90;91.10;;;;;;4971940;28;20849;-84
2022/09/02 07:38:47;;;;;;;3.80;2.43;;;18.10;90.40;;;;;;4977042;28;20700;-84
2022/09/02 07:41:14;;;;;;;2.90;1.67;;;18.10;90.70;;;;;;4982310;28;20672;-84
2022/09/02 07:43:41;;;;;;;1.90;1.80;;;18.20;90.70;;;;;;4983633;28;20679;-84
2022/09/02 07:46:09;;;;;;;1.60;1.50;;;18.20;90.50;;;;;;4982010;28;20735;-85
2022/09/02 07:48:36;;;;;;;1.87;1.77;;;18.30;90.10;;;;;;4984877;28;20649;-85
2022/09/02 07:51:07;;;;;;;2.10;2.00;;;18.40;90.50;;;;;;4983660;28;20736;-83
2022/09/02 07:53:36;;;;;;;1.70;1.60;;;18.40;89.20;;;;;;4984811;28;20624;-84
2022/09/02 07:56:03;;;;;;;2.37;2.17;;;18.40;89.80;;;;;;4985617;28;20672;-83
2022/09/02 07:58:30;;;;;;;2.20;2.00;;;18.60;90.10;;;;;;4979823;28;21197;-83
2022/09/02 08:00:57;;;;;;;2.20;2.00;;;18.80;88.80;;;;;;4975617;28;20679;-82
2022/09/02 08:03:26;;;;;;;2.23;2.13;;;18.80;86.30;;;;;;4985739;28;20641;-82
2022/09/02 08:05:56;;;;;;;2.50;2.30;;;18.90;87.70;;;;;;4983350;28;20673;-83
2022/09/02 08:08:25;;;;;;;3.37;2.27;;;19.00;87.60;;;;;;4976620;28;20743;-83
2022/09/02 08:10:53;;;;;;;1.70;1.60;;;19.00;86.00;;;;;;4987316;28;20644;-83
2022/09/02 08:13:20;;;;;;;1.87;1.77;;;19.00;86.00;;;;;;4988151;28;21191;-83
2022/09/02 08:15:48;;;;;;;1.83;1.70;;;19.10;87.50;;;;;;4987333;28;20723;-83
2022/09/02 08:18:15;;;;;;;1.77;1.67;;;19.20;87.10;;;;;;4986482;28;20735;-84
2022/09/02 08:20:43;;;;;;;1.73;1.63;;;19.50;86.10;;;;;;4988544;28;20659;-83
2022/09/02 08:23:10;;;;;;;1.37;1.27;;;19.10;82.20;;;;;;4986139;28;20716;-83
2022/09/02 08:25:37;;;;;;;1.90;1.80;;;19.60;84.20;;;;;;4987356;28;20647;-83
2022/09/02 08:28:04;;;;;;;1.93;1.83;;;19.30;83.80;;;;;;4986853;28;20736;-83
2022/09/02 08:30:31;;;;;;;1.90;1.80;;;19.40;84.40;;;;;;4987495;28;20720;-82
2022/09/02 08:32:58;;;;;;;1.90;1.57;;;19.50;84.30;;;;;;4988376;28;20640;-83
2022/09/02 08:35:25;;;;;;;1.90;1.80;;;19.50;81.10;;;;;;4986930;28;21125;-83
2022/09/02 08:37:53;;;;;;;1.63;1.53;;;19.50;81.80;;;;;;4984626;28;20673;-83
2022/09/02 08:40:24;;;;;;;1.80;1.70;;;19.60;81.30;;;;;;4986420;28;20664;-84
2022/09/02 08:42:53;;;;;;;1.53;1.43;;;19.60;81.90;;;;;;4986799;28;21260;-84
2022/09/02 08:45:24;;;;;;;1.77;1.67;;;19.90;80.40;;;;;;4984275;28;21522;-84
2022/09/02 08:48:07;;;;;;;2.43;1.97;;;19.80;79.40;;;;;;4983846;28;20640;-84
2022/09/02 08:50:36;;;;;;;1.83;1.47;;;19.70;77.60;;;;;;4985707;28;20659;-82
2022/09/02 08:53:10;;;;;;;1.57;1.47;;;19.50;79.10;;;;;;4986099;28;20743;-83
2022/09/02 08:55:45;;;;;;;2.47;1.87;;;19.70;78.70;;;;;;4984652;28;20676;-81
2022/09/02 08:58:18;;;;;;;2.33;2.23;;;19.80;78.40;;;;;;4984106;28;20742;-82
2022/09/02 09:00:50;;;;;;;1.67;1.57;;;19.90;78.20;;;;;;4974194;28;20628;-82
2022/09/02 09:03:24;;;;;;;1.43;1.33;;;20.00;80.70;;;;;;4986652;28;20644;-83
2022/09/02 09:05:59;;;;;;;2.90;1.57;;;19.90;79.60;;;;;;4971406;28;20637;-83
2022/09/02 09:08:33;;;;;;;1.33;1.30;;;20.00;78.90;;;;;;4978882;28;21201;-82
2022/09/02 09:11:03;;;;;;;1.73;1.63;;;20.30;79.30;;;;;;4983760;28;20756;-82
2022/09/02 09:13:49;;;;;;;1.80;1.70;;;20.20;78.50;;;;;;4984251;28;20673;-82
2022/09/02 09:16:26;;;;;;;1.93;1.83;;;20.10;76.90;;;;;;4977853;28;20679;-82
2022/09/02 09:19:01;;;;;;;1.40;1.30;;;20.20;77.60;;;;;;4987879;28;20638;-82
2022/09/02 09:21:32;;;;;;;2.07;1.93;;;20.40;76.70;;;;;;4990436;28;20629;-82
2022/09/02 09:24:02;;;;;;;1.83;1.73;;;20.40;73.90;;;;;;4983462;28;20636;-82
2022/09/02 09:26:34;;;;;;;1.43;1.33;;;20.40;74.50;;;;;;4983337;28;20631;-83
2022/09/02 09:29:04;;;;;;;1.63;1.53;;;20.40;75.90;;;;;;4982836;28;20729;-82
2022/09/02 09:31:34;;;;;;;1.30;1.30;;;18.90;75.00;;;;;;4982918;28;21045;-83
2022/09/02 09:34:03;;;;;;;2.10;2.00;;;20.50;74.90;;;;;;4982860;28;20684;-84
2022/09/02 09:36:52;;;;;;;1.77;1.57;;;20.60;74.40;;;;;;4976496;28;20692;-83
2022/09/02 09:39:26;;;;;;;1.63;1.53;;;20.80;74.10;;;;;;4983297;28;20643;-83
2022/09/02 09:41:55;;;;;;;1.40;1.40;;;20.90;73.40;;;;;;4983943;28;20740;-83
2022/09/02 09:44:36;;;;;;;1.63;1.53;;;20.80;72.10;;;;;;4982270;28;20645;-83
2022/09/02 09:47:05;;;;;;;2.60;1.87;;;21.30;71.90;;;;;;4982003;28;20637;-85
2022/09/02 09:49:33;;;;;;;1.83;1.73;;;20.90;71.60;;;;;;4982390;28;21186;-83
2022/09/02 09:52:00;;;;;;;1.60;1.50;;;21.00;70.70;;;;;;4982484;28;20644;-83
2022/09/02 09:54:28;;;;;;;1.30;1.20;;;21.00;70.40;;;;;;4982303;28;20637;-83
2022/09/02 09:56:56;;;;;;;1.20;1.20;;;21.10;70.60;;;;;;4972293;28;20701;-81
2022/09/02 09:59:38;;;;;;;1.50;1.30;;;21.20;69.10;;;;;;4977103;28;20734;-81
2022/09/02 10:02:05;;;;;;;1.00;1.00;;;21.20;70.20;;;;;;4969548;28;20745;-81
2022/09/02 10:04:33;;;;;;;1.40;1.30;;;21.30;70.10;;;;;;4981876;28;21114;-83
2022/09/02 10:07:00;;;;;;;1.43;1.40;;;21.50;68.20;;;;;;4979691;28;20738;-82
2022/09/02 10:09:34;;;;;;;1.03;1.03;;;21.60;69.60;;;;;;4982773;28;20625;-83
2022/09/02 10:12:03;;;;;;;1.30;1.23;;;21.60;68.80;;;;;;4982738;28;20621;-82
2022/09/02 10:14:35;;;;;;;1.30;1.13;;;21.50;66.60;;;;;;4983103;28;20651;-83
2022/09/02 10:17:15;;;;;;;1.50;1.40;;;21.50;65.20;;;;;;4981366;28;20653;-83
2022/09/02 10:19:51;;;;;;;1.50;1.40;;;21.60;66.40;;;;;;4987883;28;20668;-82
2022/09/02 10:22:40;;;;;;;1.40;1.30;;;21.60;67.00;;;;;;4983103;28;20664;-83
2022/09/02 10:25:22;;;;;;;1.23;1.13;;;21.90;64.90;;;;;;4983386;28;20687;-83
2022/09/02 10:27:59;;;;;;;1.13;1.07;;;21.90;63.80;;;;;;4982482;28;20636;-83
2022/09/02 10:30:30;;;;;;;1.30;1.20;;;21.80;63.00;;;;;;4982990;28;21298;-82
2022/09/02 10:33:28;;;;;;;1.30;1.20;;;21.80;62.70;;;;;;4982919;28;20645;-81
2022/09/02 10:36:05;;;;;;;1.87;1.20;;;21.80;62.10;;;;;;4983347;28;20763;-81
2022/09/02 10:38:38;;;;;;;1.30;1.20;;;22.20;62.90;;;;;;4980523;28;20701;-83
2022/09/02 10:41:19;;;;;;;1.20;1.10;;;22.10;62.90;;;;;;4981451;28;20739;-82
2022/09/02 10:44:11;;;;;;;1.50;1.40;;;22.10;59.50;;;;;;4981700;28;20633;-82
2022/09/02 10:46:49;;;;;;;1.50;1.27;;;22.10;59.60;;;;;;4966748;28;21342;-81
2022/09/02 10:49:30;;;;;;;1.47;1.37;;;22.00;59.30;;;;;;4966528;28;20633;-82
2022/09/02 10:52:04;;;;;;;1.07;0.97;;;22.40;59.70;;;;;;4967859;28;20733;-81
2022/09/02 10:54:42;;;;;;;0.90;0.90;;;22.40;60.10;;;;;;4985643;28;20627;-82
2022/09/02 10:57:15;;;;;;;1.67;1.57;;;22.50;58.80;;;;;;4982076;28;20795;-83
2022/09/02 10:59:49;;;;;;;1.30;1.27;;;22.50;60.90;;;;;;4982581;28;20760;-82
2022/09/02 11:02:21;;;;;;;1.60;1.50;;;22.70;59.00;;;;;;4982736;28;20732;-83
2022/09/02 11:04:51;;;;;;;1.87;1.77;;;22.50;58.60;;;;;;4985368;28;20664;-82
2022/09/02 11:07:24;;;;;;;1.40;1.30;;;22.60;59.00;;;;;;4985034;28;20760;-82
2022/09/02 11:09:56;;;;;;;0.97;0.87;;;22.60;58.70;;;;;;4985320;28;20740;-83
2022/09/02 11:12:30;;;;;;;1.83;1.20;;;22.60;57.10;;;;;;4985361;28;20643;-82
2022/09/02 11:15:10;;;;;;;1.13;1.13;;;22.60;57.70;;;;;;4985503;28;20643;-82
2022/09/02 11:17:41;;;;;;;2.10;1.60;;;22.70;58.50;;;;;;4984945;28;20888;-82
2022/09/02 11:20:17;;;;;;;1.40;1.30;;;23.00;58.70;;;;;;4992762;28;20671;-83
2022/09/02 11:22:54;;;;;;;1.53;1.43;;;23.00;57.70;;;;;;5004590;28;20624;-83
2022/09/02 11:25:24;;;;;;;1.70;1.60;;;23.10;57.60;;;;;;5004701;28;20663;-83
2022/09/02 11:28:02;;;;;;;1.60;1.50;;;23.30;56.30;;;;;;5004631;28;20721;-82
2022/09/02 11:30:38;;;;;;;1.03;1.03;;;23.20;56.60;;;;;;5004512;28;20636;-82
2022/09/02 11:33:15;;;;;;;1.40;1.30;;;23.50;57.10;;;;;;4991341;28;22272;-83
2022/09/02 11:35:43;;;;;;;1.27;1.17;;;23.60;55.30;;;;;;4983464;28;20624;-84
2022/09/02 11:38:27;;;;;;;1.73;1.63;;;23.50;55.50;;;;;;4975532;28;20665;-83
2022/09/02 11:41:23;;;;;;;1.13;1.13;;;23.70;56.20;;;;;;4984555;28;20636;-82
2022/09/02 11:43:55;;;;;;;1.23;1.13;;;23.80;55.10;;;;;;4984536;28;20736;-83
2022/09/02 11:46:49;;;;;;;1.43;1.33;;;24.10;56.20;;;;;;4965073;28;20653;-82
2022/09/02 11:49:38;;;;;;;1.30;1.20;;;24.70;54.40;;;;;;4983580;28;20641;-83
2022/09/02 11:52:23;;;;;;;1.50;1.40;;;25.40;54.00;;;;;;4983785;28;20668;-82
2022/09/02 11:55:01;;;;;;;1.43;1.33;;;25.40;54.50;;;;;;4983514;28;21065;-83
2022/09/02 11:57:28;;;;;;;1.40;1.23;;;26.00;52.90;;;;;;4970596;28;21619;-83
2022/09/02 12:00:28;;;;;;;1.43;1.20;;;27.20;50.90;;;;;;4981350;28;20680;-83
2022/09/02 12:03:11;;;;;;;1.43;1.33;;;27.10;49.70;;;;;;4982305;28;20629;-83
2022/09/02 12:05:52;;;;;;;1.13;1.13;;;27.00;49.90;;;;;;4983804;28;20640;-83
2022/09/02 12:08:56;;;;;;;1.10;1.10;;;26.60;50.20;;;;;;4979205;28;20710;-82
2022/09/02 12:11:47;;;;;;;1.10;1.10;;;25.80;50.40;;;;;;4984363;28;20668;-83
2022/09/02 12:15:06;;;;;;;2.07;1.80;;;24.90;51.80;;;;;;4977568;28;20747;-83
2022/09/02 12:17:40;;;;;;;1.57;1.47;;;24.60;53.10;;;;;;4983851;28;20669;-82
2022/09/02 12:20:10;;;;;;;1.57;1.47;;;24.00;53.20;;;;;;4993710;28;20637;-82
2022/09/02 12:22:41;;;;;;;1.00;0.93;;;23.50;53.20;;;;;;4983904;28;20641;-82
2022/09/02 12:25:41;;;;;;;1.50;1.40;;;23.70;54.00;;;;;;4983384;28;21559;-81
2022/09/02 12:28:26;;;;;;;1.40;1.30;;;23.40;54.10;;;;;;4980565;28;20678;-81
2022/09/02 12:31:41;;;;;;;1.63;1.53;;;23.20;54.40;;;;;;4985527;28;21227;-82
2022/09/02 12:34:46;;;;;;;1.13;1.13;;;22.80;55.00;;;;;;4900744;29;20641;-82
2022/09/02 12:40:23;;;;;;;1.60;1.50;;;23.10;56.10;;;;;;5119993;27;21124;-82
2022/09/02 12:42:52;;;;;;;1.30;1.20;;;22.80;54.20;;;;;;5115880;27;20626;-82
2022/09/02 12:45:25;;;;;;;1.13;1.03;;;22.90;55.20;;;;;;5119510;27;20692;-82
2022/09/02 12:47:59;;;;;;;1.40;1.30;;;23.00;53.80;;;;;;5118893;27;20711;-82
2022/09/02 12:50:31;;;;;;;1.90;1.70;;;22.80;54.40;;;;;;5111513;28;20742;-81
2022/09/02 12:53:24;;;;;;;1.40;1.30;;;23.00;55.60;;;;;;5099719;28;20709;-80
2022/09/02 12:56:00;;;;;;;3.37;1.53;;;23.20;55.10;;;;;;5098885;28;20726;-80
2022/09/02 12:58:32;;;;;;;1.90;1.80;;;23.10;54.40;;;;;;5096922;28;20695;-80
2022/09/02 13:01:17;;;;;;;1.63;1.47;;;23.70;55.10;;;;;;5098160;28;20640;-80
2022/09/02 13:04:02;;;;;;;1.43;1.33;;;24.80;54.50;;;;;;5092332;28;20636;-82
2022/09/02 13:06:42;;;;;;;1.10;1.10;;;26.00;51.60;;;;;;5096879;28;20763;-80
2022/09/02 13:09:36;;;;;;;1.73;1.40;;;27.40;51.20;;;;;;5098679;28;21071;-80
2022/09/02 13:12:35;;;;;;;1.37;1.27;;;29.70;49.00;;;;;;5098719;28;20726;-81
2022/09/02 13:15:19;;;;;;;1.20;1.10;;;30.50;46.50;;;;;;5098047;28;20722;-80
2022/09/02 13:17:54;;;;;;;2.17;1.23;;;30.60;46.00;;;;;;5083331;28;20735;-81
2022/09/02 13:20:53;;;;;;;1.53;1.43;;;30.60;45.90;;;;;;5087068;28;20923;-82
2022/09/02 13:23:45;;;;;;;1.47;1.37;;;30.60;45.60;;;;;;5092867;28;21281;-81